地図

経路データ

SID SEASON NUMBER BASIN SUBBASIN NAME ISO_TIME NATURE LAT LON WMO_WIND WMO_PRES WMO_AGENCY TRACK_TYPE DIST2LAND LANDFALL IFLAG USA_AGENCY USA_ATCF_ID USA_LAT USA_LON USA_RECORD USA_STATUS USA_WIND USA_PRES USA_SSHS USA_R34_NE USA_R34_SE USA_R34_SW USA_R34_NW USA_R50_NE USA_R50_SE USA_R50_SW USA_R50_NW USA_R64_NE USA_R64_SE USA_R64_SW USA_R64_NW USA_POCI USA_ROCI USA_RMW USA_EYE TOKYO_LAT TOKYO_LON TOKYO_GRADE TOKYO_WIND TOKYO_PRES TOKYO_R50_DIR TOKYO_R50_LONG TOKYO_R50_SHORT TOKYO_R30_DIR TOKYO_R30_LONG TOKYO_R30_SHORT TOKYO_LAND CMA_LAT CMA_LON CMA_CAT CMA_WIND CMA_PRES HKO_LAT HKO_LON HKO_CAT HKO_WIND HKO_PRES NEWDELHI_LAT NEWDELHI_LON NEWDELHI_GRADE NEWDELHI_WIND NEWDELHI_PRES NEWDELHI_CI NEWDELHI_DP NEWDELHI_POCI REUNION_LAT REUNION_LON REUNION_TYPE REUNION_WIND REUNION_PRES REUNION_TNUM REUNION_CI REUNION_RMW REUNION_R34_NE REUNION_R34_SE REUNION_R34_SW REUNION_R34_NW REUNION_R50_NE REUNION_R50_SE REUNION_R50_SW REUNION_R50_NW REUNION_R64_NE REUNION_R64_SE REUNION_R64_SW REUNION_R64_NW BOM_LAT BOM_LON BOM_TYPE BOM_WIND BOM_PRES BOM_TNUM BOM_CI BOM_RMW BOM_R34_NE BOM_R34_SE BOM_R34_SW BOM_R34_NW BOM_R50_NE BOM_R50_SE BOM_R50_SW BOM_R50_NW BOM_R64_NE BOM_R64_SE BOM_R64_SW BOM_R64_NW BOM_ROCI BOM_POCI BOM_EYE BOM_POS_METHOD BOM_PRES_METHOD NADI_LAT NADI_LON NADI_CAT NADI_WIND NADI_PRES WELLINGTON_LAT WELLINGTON_LON WELLINGTON_WIND WELLINGTON_PRES DS824_LAT DS824_LON DS824_STAGE DS824_WIND DS824_PRES TD9636_LAT TD9636_LON TD9636_STAGE TD9636_WIND TD9636_PRES TD9635_LAT TD9635_LON TD9635_WIND TD9635_PRES TD9635_ROCI NEUMANN_LAT NEUMANN_LON NEUMANN_CLASS NEUMANN_WIND NEUMANN_PRES MLC_LAT MLC_LON MLC_CLASS MLC_WIND MLC_PRES USA_GUST BOM_GUST BOM_GUST_PER REUNION_GUST REUNION_GUST_PER USA_SEAHGT USA_SEARAD_NE USA_SEARAD_SE USA_SEARAD_SW USA_SEARAD_NW STORM_SPEED STORM_DIR
1963085S10138 1963 33 SP EA NOT_NAMED 1963-03-26 11:00:00 NR -10.1000 137.800 main 190 190 __________O___ -1 -10.1000 137.800 7 6 171
1963085S10138 1963 33 SP EA NOT_NAMED 1963-03-26 12:00:00 TS -10.1958 137.825 main 201 201 O________OP___ jtwc_sh SH441963 -10.2000 137.800 -1 -10.2000 137.800 TC -10.1916 137.850 7 6 150
1963085S10138 1963 33 SP EA NOT_NAMED 1963-03-26 15:00:00 TS -10.4486 137.999 main 224 224 P________PP___ SH441963 -10.4325 137.990 -1 -10.4325 137.990 TC -10.4700 138.011 7 6 148
1963085S10138 1963 33 SP EA NOT_NAMED 1963-03-26 17:00:00 TS -10.6343 138.101 1000 bom main 225 215 P_____O__PP___ SH441963 -10.6048 138.127 -1 -10.7000 137.800 1000 -10.6048 138.127 TC -10.6621 138.138 7 7 155
1963085S10138 1963 33 SP EA NOT_NAMED 1963-03-26 18:00:00 TS -10.7523 138.146 main 206 195 O_____P__OP___ jtwc_sh SH441963 -10.7000 138.200 -1 -10.8700 137.927 999 -10.7000 138.200 TC -10.7611 138.210 7 9 148
1963085S10138 1963 33 SP EA NOT_NAMED 1963-03-26 21:00:00 TS -11.1461 138.422 main 203 196 P_____P__PP___ SH441963 -11.0274 138.455 -1 -11.3742 138.318 998 -11.0274 138.455 TC -11.0743 138.474 7 10 144
1963085S10138 1963 33 SP EA NOT_NAMED 1963-03-26 23:00:00 TS -11.4434 138.659 998 bom main 210 205 P_____O__PO___ SH441963 -11.2723 138.672 -1 -11.7000 138.600 998 -11.2723 138.672 TC -11.3000 138.700 2 12 141
1963085S10138 1963 33 SP EA NOT_NAMED 1963-03-27 00:00:00 TS -11.5954 138.796 main 211 211 O_____P__OP___ jtwc_sh SH441963 -11.4000 138.800 -1 -11.8583 138.750 998 -11.4000 138.800 TC -11.4189 138.831 2 12 133
1963085S10138 1963 33 SP EA NOT_NAMED 1963-03-27 03:00:00 TS -11.9953 139.271 main 252 221 P_____P__PP___ SH441963 -11.7776 139.278 -1 -12.3132 139.240 998 -11.7776 139.278 TC -11.8006 139.281 2 13 130
1963085S10138 1963 33 SP EA NOT_NAMED 1963-03-27 05:00:00 TS -12.2694 139.618 998 bom main 219 196 P_____O__PP___ SH441963 -12.0527 139.629 -1 -12.6000 139.600 998 -12.0527 139.629 TC -12.0757 139.612 2 13 129
1963085S10138 1963 33 SP EA NOT_NAMED 1963-03-27 06:00:00 TS -12.4096 139.795 main 196 142 O_____P__OP___ jtwc_sh SH441963 -12.2000 139.800 -1 -12.7286 139.794 998 -12.2000 139.800 TC -12.2195 139.782 2 14 130
1963085S10138 1963 33 SP EA NOT_NAMED 1963-03-27 09:00:00 TS -12.8515 140.327 main 141 108 P_____P__PP___ SH441963 -12.6774 140.265 -1 -13.1072 140.405 998 -12.6774 140.265 TC -12.6754 140.286 2 14 132
1963085S10138 1963 33 SP EA NOT_NAMED 1963-03-27 11:00:00 TS -13.1750 140.667 998 bom main 100 89 P_____O__PO___ SH441963 -13.0223 140.558 -1 -13.4000 140.800 998 -13.0223 140.558 TC -13.0000 140.600 2 14 136
1963085S10138 1963 33 SP EA NOT_NAMED 1963-03-27 12:00:00 TS -13.3508 140.829 main 87 21 O_____P__OP___ jtwc_sh SH441963 -13.2000 140.700 -1 -13.5824 140.999 998 -13.2000 140.700 TC -13.1714 140.748 2 14 141
1963085S10138 1963 33 SP EA NOT_NAMED 1963-03-27 15:00:00 TS -13.9174 141.286 main 21 10 P_____P__PP___ SH441963 -13.7425 141.123 -1 -14.1941 141.540 998 -13.7425 141.123 TC -13.7155 141.171 2 14 144
1963085S10138 1963 33 SP EA NOT_NAMED 1963-03-27 17:00:00 TS -14.3048 141.540 998 bom main 10 0 P_____O__PP___ SH441963 -14.1140 141.381 -1 -14.6000 141.800 998 -14.1140 141.381 TC -14.0925 141.427 2 14 149
1963085S10138 1963 33 SP EA NOT_NAMED 1963-03-27 18:00:00 TS -14.4925 141.645 main 0 0 O_____P__OP___ jtwc_sh SH441963 -14.3000 141.500 -1 -14.7806 141.882 998 -14.3000 141.500 TC -14.2821 141.545 2 12 154
1963085S10138 1963 33 SP EA NOT_NAMED 1963-03-27 21:00:00 TS -15.0361 141.901 main 0 0 P_____P__PP___ SH441963 -14.8650 141.860 -1 -15.2853 141.985 998 -14.8650 141.860 TC -14.8431 141.848 2 12 158
1963085S10138 1963 33 SP EA NOT_NAMED 1963-03-27 23:00:00 TS -15.3801 142.013 998 bom main 0 0 P_____O__PO___ SH441963 -15.2281 142.039 -1 -15.6000 142.000 998 -15.2281 142.039 TC -15.2000 142.000 1 11 164
1963085S10138 1963 33 SP EA NOT_NAMED 1963-03-28 00:00:00 TS -15.5448 142.054 main 0 0 O_____P__OP___ jtwc_sh SH441963 -15.4000 142.100 -1 -15.7557 142.020 998 -15.4000 142.100 TC -15.3681 142.051 1 10 172
1963085S10138 1963 33 SP EA NOT_NAMED 1963-03-28 03:00:00 TS -16.0136 142.101 main 0 0 P_____P__PP___ SH441963 -15.8724 142.130 -1 -16.2054 142.064 998 -15.8724 142.130 TC -15.8528 142.136 1 9 176
1963085S10138 1963 33 SP EA NOT_NAMED 1963-03-28 05:00:00 TS -16.3079 142.108 998 bom main 0 0 P_____O__PP___ SH441963 -16.1609 142.105 -1 -16.5000 142.100 998 -16.1609 142.105 TC -16.1594 142.154 1 9 178
1963085S10138 1963 33 SP EA NOT_NAMED 1963-03-28 06:00:00 TS -16.4521 142.116 main 0 0 O_____P__OP___ jtwc_sh SH441963 -16.3000 142.100 -1 -16.6526 142.120 998 -16.3000 142.100 TC -16.3078 142.158 1 9 172
1963085S10138 1963 33 SP EA NOT_NAMED 1963-03-28 09:00:00 TS -16.8757 142.191 main 0 0 P_____P__PP___ SH441963 -16.7150 142.177 -1 -17.1079 142.204 998 -16.7150 142.177 TC -16.7331 142.170 1 9 168
1963085S10138 1963 33 SP EA NOT_NAMED 1963-03-28 11:00:00 TS -17.1439 142.270 998 bom main 0 0 P_____O__PO___ SH441963 -16.9750 142.256 -1 -17.4000 142.300 998 -16.9750 142.256 TC -17.0000 142.200 1 8 163
1963085S10138 1963 33 SP EA NOT_NAMED 1963-03-28 12:00:00 TS -17.2751 142.324 main 0 0 O_____P__OP___ jtwc_sh SH441963 -17.1000 142.300 -1 -17.5443 142.374 998 -17.1000 142.300 TC -17.1313 142.245 1 8 156
1963085S10138 1963 33 SP EA NOT_NAMED 1963-03-28 15:00:00 TS -17.6577 142.509 main 0 0 P_____P__PP___ SH441963 -17.4575 142.443 -1 -17.9547 142.641 998 -17.4575 142.443 TC -17.5038 142.410 1 8 155
1963085S10138 1963 33 SP EA NOT_NAMED 1963-03-28 17:00:00 TS -17.8975 142.634 998 bom main 0 0 P_____O__PP___ SH441963 -17.6860 142.547 -1 -18.2000 142.800 998 -17.6860 142.547 TC -17.7377 142.535 1 8 154
1963085S10138 1963 33 SP EA NOT_NAMED 1963-03-28 18:00:00 TS -18.0125 142.690 main 0 0 O_____P__OP___ jtwc_sh SH441963 -17.8000 142.600 -1 -18.3114 142.851 998 -17.8000 142.600 TC -17.8513 142.599 1 7 157
1963085S10138 1963 33 SP EA NOT_NAMED 1963-03-28 21:00:00 TS -18.3417 142.830 main 0 0 P_____P__PP___ SH441963 -18.1500 142.750 -1 -18.6108 142.950 998 -18.1500 142.750 TC -18.1829 142.787 1 7 158
1963085S10138 1963 33 SP EA NOT_NAMED 1963-03-28 23:00:00 TS -18.5544 142.914 998 bom main 0 0 P_____O__PO___ SH441963 -18.3833 142.850 -1 -18.8000 143.000 998 -18.3833 142.850 TC -18.4000 142.900 1 7 160
1963085S10138 1963 33 SP EA NOT_NAMED 1963-03-29 00:00:00 TS -18.6634 142.957 main 0 0 O_____P__OP___ jtwc_sh SH441963 -18.5000 142.900 -1 -18.9052 143.033 998 -18.5000 142.900 TC -18.5117 142.952 1 7 159
1963085S10138 1963 33 SP EA NOT_NAMED 1963-03-29 03:00:00 TS -18.9974 143.092 main 0 0 P_____P__PP___ SH441963 -18.8575 143.065 -1 -19.2158 143.133 998 -18.8575 143.065 TC -18.8412 143.095 1 7 160
1963085S10138 1963 33 SP EA NOT_NAMED 1963-03-29 05:00:00 TS -19.2094 143.173 998 bom main 0 0 P_____O__PP___ SH441963 -19.0891 143.161 -1 -19.4000 143.200 998 -19.0891 143.161 TC -19.0574 143.175 1 7 160
1963085S10138 1963 33 SP EA NOT_NAMED 1963-03-29 06:00:00 TS -19.3070 143.211 main 0 0 O_____P__OP___ jtwc_sh SH441963 -19.2000 143.200 -1 -19.4702 143.244 998 -19.2000 143.200 TC -19.1649 143.209 1 6 161
1963085S10138 1963 33 SP EA NOT_NAMED 1963-03-29 09:00:00 TS -19.5664 143.307 main 0 0 P_____P__PP___ SH441963 -19.5000 143.280 -1 -19.6538 143.365 999 -19.5000 143.280 TC -19.4859 143.281 1 5 165
1963085S10138 1963 33 SP EA NOT_NAMED 1963-03-29 11:00:00 TS -19.7431 143.338 1000 bom main 0 0 P_____O__PO___ SH441963 -19.6969 143.300 -1 -19.8000 143.400 1000 -19.6969 143.300 TC -19.7000 143.300 1 6 172
1963085S10138 1963 33 SP EA NOT_NAMED 1963-03-29 12:00:00 TS -19.8409 143.338 main 0 0 O_____P__OP___ jtwc_sh SH441963 -19.8000 143.300 -1 -19.8969 143.390 1000 -19.8000 143.300 TC -19.8074 143.300 1 7 188
1963085S10138 1963 33 SP EA NOT_NAMED 1963-03-29 15:00:00 TS -20.1777 143.284 main 0 0 P_____P__PP___ SH441963 -20.1375 143.265 -1 -20.2425 143.288 1000 -20.1375 143.265 TC -20.1309 143.262 1 7 191
1963085S10138 1963 33 SP EA NOT_NAMED 1963-03-29 17:00:00 TS -20.4238 143.220 1000 bom main 0 0 P_____O__PP___ SH441963 -20.3779 143.223 -1 -20.5000 143.200 1000 -20.3779 143.223 TC -20.3476 143.213 1 8 194
1963085S10138 1963 33 SP EA NOT_NAMED 1963-03-29 18:00:00 TS -20.5615 143.183 main 0 0 O_____P__OP___ jtwc_sh SH441963 -20.5000 143.200 -1 -20.6329 143.159 1000 -20.5000 143.200 TC -20.4561 143.183 1 9 195
1963085S10138 1963 33 SP EA NOT_NAMED 1963-03-29 21:00:00 TS -20.9770 143.061 main 0 0 ______P___P___ SH441963 -1 -21.0437 143.043 1000 TC -20.7823 143.077 1 9 194
1963085S10138 1963 33 SP EA NOT_NAMED 1963-03-29 23:00:00 TS -21.2558 143.005 1000 bom main 0 0 ______O___O___ SH441963 -1 -21.3000 143.000 1000 TC -21.0000 143.000 1 9 188
1963085S10138 1963 33 SP EA NOT_NAMED 1963-03-30 00:00:00 TS -21.4057 142.992 main 0 0 ______P_______ -1 -21.4114 142.984 1000 1 7 177
1963085S10138 1963 33 SP EA NOT_NAMED 1963-03-30 03:00:00 TS -21.7165 143.014 main 0 0 ______P_______ -1 -21.7107 143.003 1000 1 6 167
1963085S10138 1963 33 SP EA NOT_NAMED 1963-03-30 05:00:00 TS -21.9054 143.111 1000 bom main 0 0 ______O_______ -1 -21.9000 143.100 1000 1 7 151
1963085S10138 1963 33 SP EA NOT_NAMED 1963-03-30 06:00:00 TS -22.0092 143.186 main 0 0 ______P_______ -1 -22.0183 143.172 1000 1 8 137
1963085S10138 1963 33 SP EA NOT_NAMED 1963-03-30 09:00:00 TS -22.3124 143.522 main 0 0 ______P_______ -1 -22.3552 143.502 1001 1 9 129
1963085S10138 1963 33 SP EA NOT_NAMED 1963-03-30 11:00:00 TS -22.4730 143.815 1002 bom main 0 0 ______O_______ -1 -22.5000 143.800 1002 9 117
1963085S10138 1963 33 SP EA NOT_NAMED 1963-03-30 12:00:00 TS -22.5233 143.975 main 0 0 ______P_______ -1 -22.5310 143.967 1002 10 91
1963085S10138 1963 33 SP EA NOT_NAMED 1963-03-30 15:00:00 NR -22.4891 144.514 main 0 0 ______P_______ -1 -22.4891 144.514 1002 10 82
1963085S10138 1963 33 SP EA NOT_NAMED 1963-03-30 17:00:00 NR -22.4000 144.900 1003 bom main 0 ______O_______ -1 -22.4000 144.900 1003 11 76

デジタル台風データ・検索

IBTrACS Databaseについて

本データベースは、米国NOAAが公開する1842年以降の世界の熱帯低気圧のベストトラックデータアーカイブInternational Best Track Archive for Climate Stewardship (IBTrACS)を、ウェブで閲覧しやすい形式に変換したものです。

最終更新日:2021-10-08